sensor_id;sensor_type;location;lat;lon;timestamp;temperature;humidity
37086;DHT22;23001;45.952;12.676;2023-02-28T00:05:07;5.50;93.00
37086;DHT22;23001;45.952;12.676;2023-02-28T00:14:07;5.50;93.00
37086;DHT22;23001;45.952;12.676;2023-02-28T00:17:07;5.50;92.80
37086;DHT22;23001;45.952;12.676;2023-02-28T00:19:42;5.50;92.90
37086;DHT22;23001;45.952;12.676;2023-02-28T00:22:08;5.50;92.80
37086;DHT22;23001;45.952;12.676;2023-02-28T00:24:42;5.50;93.10
37086;DHT22;23001;45.952;12.676;2023-02-28T00:27:15;5.60;93.10
37086;DHT22;23001;45.952;12.676;2023-02-28T00:30:01;5.60;93.00
37086;DHT22;23001;45.952;12.676;2023-02-28T00:38:58;5.70;93.00
37086;DHT22;23001;45.952;12.676;2023-02-28T00:41:27;5.70;93.00
37086;DHT22;23001;45.952;12.676;2023-02-28T00:59:08;5.70;92.80
37086;DHT22;23001;45.952;12.676;2023-02-28T01:01:34;5.70;93.30
37086;DHT22;23001;45.952;12.676;2023-02-28T01:07:04;5.60;93.10
37086;DHT22;23001;45.952;12.676;2023-02-28T01:12:39;5.60;93.10
37086;DHT22;23001;45.952;12.676;2023-02-28T01:18:39;5.60;93.20
37086;DHT22;23001;45.952;12.676;2023-02-28T01:24:15;5.60;93.30
37086;DHT22;23001;45.952;12.676;2023-02-28T01:29:25;5.60;93.20
37086;DHT22;23001;45.952;12.676;2023-02-28T01:31:50;5.60;93.30
37086;DHT22;23001;45.952;12.676;2023-02-28T01:34:25;5.60;93.30
37086;DHT22;23001;45.952;12.676;2023-02-28T01:36:54;5.60;93.30
37086;DHT22;23001;45.952;12.676;2023-02-28T01:39:23;5.60;93.70
37086;DHT22;23001;45.952;12.676;2023-02-28T01:47:50;5.60;93.40
37086;DHT22;23001;45.952;12.676;2023-02-28T01:50:41;5.60;93.50
37086;DHT22;23001;45.952;12.676;2023-02-28T01:53:13;5.60;93.40
37086;DHT22;23001;45.952;12.676;2023-02-28T01:55:49;5.60;93.40
37086;DHT22;23001;45.952;12.676;2023-02-28T02:01:14;5.60;93.50
37086;DHT22;23001;45.952;12.676;2023-02-28T02:03:58;5.60;93.80
37086;DHT22;23001;45.952;12.676;2023-02-28T02:06:43;5.60;93.70
37086;DHT22;23001;45.952;12.676;2023-02-28T02:09:27;5.60;93.50
37086;DHT22;23001;45.952;12.676;2023-02-28T02:12:05;5.60;93.50
37086;DHT22;23001;45.952;12.676;2023-02-28T02:17:40;5.60;93.70
37086;DHT22;23001;45.952;12.676;2023-02-28T02:42:44;5.60;93.90
37086;DHT22;23001;45.952;12.676;2023-02-28T02:45:45;5.60;93.70
37086;DHT22;23001;45.952;12.676;2023-02-28T02:48:16;5.60;94.00
37086;DHT22;23001;45.952;12.676;2023-02-28T02:50:44;5.60;94.20
37086;DHT22;23001;45.952;12.676;2023-02-28T02:53:24;5.50;94.30
37086;DHT22;23001;45.952;12.676;2023-02-28T02:55:51;5.50;94.10
37086;DHT22;23001;45.952;12.676;2023-02-28T02:58:37;5.50;94.10
37086;DHT22;23001;45.952;12.676;2023-02-28T03:01:11;5.50;94.20
37086;DHT22;23001;45.952;12.676;2023-02-28T03:03:38;5.50;94.20
37086;DHT22;23001;45.952;12.676;2023-02-28T03:06:06;5.50;94.30
37086;DHT22;23001;45.952;12.676;2023-02-28T03:08:55;5.60;94.10
37086;DHT22;23001;45.952;12.676;2023-02-28T03:11:21;5.50;94.10
37086;DHT22;23001;45.952;12.676;2023-02-28T03:28:56;5.50;94.50
37086;DHT22;23001;45.952;12.676;2023-02-28T03:33:56;5.60;94.70
37086;DHT22;23001;45.952;12.676;2023-02-28T03:36:39;5.50;94.70
37086;DHT22;23001;45.952;12.676;2023-02-28T03:42:34;5.50;94.80
37086;DHT22;23001;45.952;12.676;2023-02-28T03:45:07;5.50;94.90
37086;DHT22;23001;45.952;12.676;2023-02-28T03:56:41;5.50;94.80
37086;DHT22;23001;45.952;12.676;2023-02-28T03:59:17;5.50;95.30
37086;DHT22;23001;45.952;12.676;2023-02-28T04:01:48;5.50;94.90
37086;DHT22;23001;45.952;12.676;2023-02-28T04:04:14;5.50;94.80
37086;DHT22;23001;45.952;12.676;2023-02-28T04:06:46;5.60;94.90
37086;DHT22;23001;45.952;12.676;2023-02-28T04:12:33;5.50;94.90
37086;DHT22;23001;45.952;12.676;2023-02-28T04:14:59;5.60;95.10
37086;DHT22;23001;45.952;12.676;2023-02-28T04:18:06;5.50;94.90
37086;DHT22;23001;45.952;12.676;2023-02-28T04:20:37;5.60;94.80
37086;DHT22;23001;45.952;12.676;2023-02-28T04:26:10;5.60;94.90
37086;DHT22;23001;45.952;12.676;2023-02-28T04:28:42;5.60;95.00
37086;DHT22;23001;45.952;12.676;2023-02-28T04:31:08;5.60;94.80
37086;DHT22;23001;45.952;12.676;2023-02-28T04:33:46;5.50;94.70
37086;DHT22;23001;45.952;12.676;2023-02-28T04:36:11;5.60;94.90
37086;DHT22;23001;45.952;12.676;2023-02-28T04:38:48;5.50;95.00
37086;DHT22;23001;45.952;12.676;2023-02-28T04:41:14;5.50;95.10
37086;DHT22;23001;45.952;12.676;2023-02-28T04:43:55;5.60;95.10
37086;DHT22;23001;45.952;12.676;2023-02-28T04:49:13;5.50;95.00
37086;DHT22;23001;45.952;12.676;2023-02-28T04:51:39;5.50;95.30
37086;DHT22;23001;45.952;12.676;2023-02-28T04:54:16;5.50;95.40
37086;DHT22;23001;45.952;12.676;2023-02-28T04:56:58;5.50;95.50
37086;DHT22;23001;45.952;12.676;2023-02-28T04:59:23;5.50;95.20
37086;DHT22;23001;45.952;12.676;2023-02-28T05:01:58;5.50;95.50
37086;DHT22;23001;45.952;12.676;2023-02-28T05:04:27;5.50;95.40
37086;DHT22;23001;45.952;12.676;2023-02-28T05:06:52;5.50;95.30
37086;DHT22;23001;45.952;12.676;2023-02-28T05:09:18;5.50;95.30
37086;DHT22;23001;45.952;12.676;2023-02-28T05:11:44;5.50;95.50
37086;DHT22;23001;45.952;12.676;2023-02-28T05:14:13;5.40;95.40
37086;DHT22;23001;45.952;12.676;2023-02-28T05:16:39;5.40;95.50
37086;DHT22;23001;45.952;12.676;2023-02-28T05:19:14;5.40;95.50
37086;DHT22;23001;45.952;12.676;2023-02-28T05:21:53;5.30;95.50
37086;DHT22;23001;45.952;12.676;2023-02-28T05:24:28;5.30;95.50
37086;DHT22;23001;45.952;12.676;2023-02-28T05:26:56;5.30;95.40
37086;DHT22;23001;45.952;12.676;2023-02-28T05:29:22;5.20;95.50
37086;DHT22;23001;45.952;12.676;2023-02-28T05:31:47;5.20;95.60
37086;DHT22;23001;45.952;12.676;2023-02-28T05:34:19;5.20;95.70
37086;DHT22;23001;45.952;12.676;2023-02-28T05:36:45;5.20;95.70
37086;DHT22;23001;45.952;12.676;2023-02-28T05:39:19;5.10;95.80
37086;DHT22;23001;45.952;12.676;2023-02-28T05:41:48;5.10;95.70
37086;DHT22;23001;45.952;12.676;2023-02-28T05:44:16;5.10;95.90
37086;DHT22;23001;45.952;12.676;2023-02-28T05:46:56;5.10;95.80
37086;DHT22;23001;45.952;12.676;2023-02-28T05:49:29;5.00;95.90
37086;DHT22;23001;45.952;12.676;2023-02-28T05:51:55;5.00;96.20
37086;DHT22;23001;45.952;12.676;2023-02-28T05:54:30;4.90;96.10
37086;DHT22;23001;45.952;12.676;2023-02-28T05:56:56;5.00;96.30
37086;DHT22;23001;45.952;12.676;2023-02-28T06:08:29;4.90;96.70
37086;DHT22;23001;45.952;12.676;2023-02-28T06:10:55;4.90;96.50
37086;DHT22;23001;45.952;12.676;2023-02-28T06:16:11;4.90;96.80
37086;DHT22;23001;45.952;12.676;2023-02-28T06:24:53;5.00;96.80
37086;DHT22;23001;45.952;12.676;2023-02-28T06:27:24;5.20;96.60
37086;DHT22;23001;45.952;12.676;2023-02-28T06:30:11;5.20;96.50
37086;DHT22;23001;45.952;12.676;2023-02-28T06:32:45;5.20;96.30
37086;DHT22;23001;45.952;12.676;2023-02-28T06:38:27;5.30;96.00
37086;DHT22;23001;45.952;12.676;2023-02-28T06:41:16;5.50;96.30
37086;DHT22;23001;45.952;12.676;2023-02-28T06:43:48;5.50;96.50
37086;DHT22;23001;45.952;12.676;2023-02-28T06:46:14;5.60;96.20
37086;DHT22;23001;45.952;12.676;2023-02-28T06:48:57;5.70;95.50
37086;DHT22;23001;45.952;12.676;2023-02-28T06:51:23;5.80;95.90
37086;DHT22;23001;45.952;12.676;2023-02-28T06:54:15;5.90;95.70
37086;DHT22;23001;45.952;12.676;2023-02-28T06:56:43;5.90;95.70
37086;DHT22;23001;45.952;12.676;2023-02-28T06:59:34;6.00;95.90
37086;DHT22;23001;45.952;12.676;2023-02-28T07:02:03;6.20;95.20
37086;DHT22;23001;45.952;12.676;2023-02-28T07:04:31;6.50;95.30
37086;DHT22;23001;45.952;12.676;2023-02-28T07:16:19;7.50;93.50
37086;DHT22;23001;45.952;12.676;2023-02-28T07:34:18;8.10;92.60
37086;DHT22;23001;45.952;12.676;2023-02-28T07:52:20;8.10;92.00
37086;DHT22;23001;45.952;12.676;2023-02-28T08:07:35;7.70;92.80
37086;DHT22;23001;45.952;12.676;2023-02-28T08:20:00;7.60;92.80
37086;DHT22;23001;45.952;12.676;2023-02-28T08:34:44;7.50;93.40
37086;DHT22;23001;45.952;12.676;2023-02-28T08:37:16;7.50;93.60
37086;DHT22;23001;45.952;12.676;2023-02-28T08:46:13;8.10;93.50
37086;DHT22;23001;45.952;12.676;2023-02-28T08:57:23;8.00;92.60
37086;DHT22;23001;45.952;12.676;2023-02-28T09:00:03;8.10;93.40
37086;DHT22;23001;45.952;12.676;2023-02-28T09:02:41;8.30;93.00
37086;DHT22;23001;45.952;12.676;2023-02-28T09:05:12;8.30;92.60
37086;DHT22;23001;45.952;12.676;2023-02-28T09:08:09;8.20;92.40
37086;DHT22;23001;45.952;12.676;2023-02-28T09:11:02;8.30;92.80
37086;DHT22;23001;45.952;12.676;2023-02-28T09:13:46;8.40;92.70
37086;DHT22;23001;45.952;12.676;2023-02-28T09:16:22;8.50;93.20
37086;DHT22;23001;45.952;12.676;2023-02-28T09:25:29;8.50;93.00
37086;DHT22;23001;45.952;12.676;2023-02-28T09:28:04;8.50;93.10
37086;DHT22;23001;45.952;12.676;2023-02-28T09:30:33;8.60;92.80
37086;DHT22;23001;45.952;12.676;2023-02-28T09:33:08;8.70;93.40
37086;DHT22;23001;45.952;12.676;2023-02-28T09:35:34;8.70;92.60
37086;DHT22;23001;45.952;12.676;2023-02-28T09:38:08;8.50;92.70
37086;DHT22;23001;45.952;12.676;2023-02-28T09:41:08;8.60;92.80
37086;DHT22;23001;45.952;12.676;2023-02-28T09:44:07;8.60;92.70
37086;DHT22;23001;45.952;12.676;2023-02-28T09:46:51;8.70;93.10
37086;DHT22;23001;45.952;12.676;2023-02-28T09:49:41;8.60;92.60
37086;DHT22;23001;45.952;12.676;2023-02-28T09:58:05;8.80;93.00
37086;DHT22;23001;45.952;12.676;2023-02-28T10:00:36;8.80;92.70
37086;DHT22;23001;45.952;12.676;2023-02-28T10:06:02;8.70;92.20
37086;DHT22;23001;45.952;12.676;2023-02-28T10:08:33;8.90;92.50
37086;DHT22;23001;45.952;12.676;2023-02-28T10:11:21;9.00;92.70
37086;DHT22;23001;45.952;12.676;2023-02-28T10:14:19;9.10;92.40
37086;DHT22;23001;45.952;12.676;2023-02-28T10:16:56;9.10;92.50
37086;DHT22;23001;45.952;12.676;2023-02-28T10:27:49;9.20;92.40
37086;DHT22;23001;45.952;12.676;2023-02-28T10:32:54;9.30;92.50
37086;DHT22;23001;45.952;12.676;2023-02-28T10:35:40;9.50;91.80
37086;DHT22;23001;45.952;12.676;2023-02-28T10:38:27;9.30;91.80
37086;DHT22;23001;45.952;12.676;2023-02-28T10:41:33;9.30;92.10
37086;DHT22;23001;45.952;12.676;2023-02-28T10:44:21;9.30;91.90
37086;DHT22;23001;45.952;12.676;2023-02-28T10:47:12;9.40;91.80
37086;DHT22;23001;45.952;12.676;2023-02-28T10:56:20;9.60;92.10
37086;DHT22;23001;45.952;12.676;2023-02-28T10:59:00;9.50;92.40
37086;DHT22;23001;45.952;12.676;2023-02-28T11:01:39;9.60;91.30
37086;DHT22;23001;45.952;12.676;2023-02-28T11:09:39;9.40;91.90
37086;DHT22;23001;45.952;12.676;2023-02-28T11:12:23;9.60;92.00
37086;DHT22;23001;45.952;12.676;2023-02-28T11:14:59;9.70;91.70
37086;DHT22;23001;45.952;12.676;2023-02-28T11:17:32;9.60;91.40
37086;DHT22;23001;45.952;12.676;2023-02-28T11:20:02;9.60;91.80
37086;DHT22;23001;45.952;12.676;2023-02-28T11:22:34;9.70;91.50
37086;DHT22;23001;45.952;12.676;2023-02-28T11:25:07;9.60;91.60
37086;DHT22;23001;45.952;12.676;2023-02-28T11:27:53;9.70;92.30
37086;DHT22;23001;45.952;12.676;2023-02-28T11:30:38;9.80;92.00
37086;DHT22;23001;45.952;12.676;2023-02-28T11:36:25;9.70;92.30
37086;DHT22;23001;45.952;12.676;2023-02-28T11:56:50;9.80;92.40
37086;DHT22;23001;45.952;12.676;2023-02-28T11:59:28;9.60;92.10
37086;DHT22;23001;45.952;12.676;2023-02-28T12:05:57;9.50;92.10
37086;DHT22;23001;45.952;12.676;2023-02-28T12:28:14;9.80;91.50
37086;DHT22;23001;45.952;12.676;2023-02-28T12:33:34;9.90;92.20
37086;DHT22;23001;45.952;12.676;2023-02-28T12:36:23;10.10;91.60
37086;DHT22;23001;45.952;12.676;2023-02-28T12:38:53;10.10;91.00
37086;DHT22;23001;45.952;12.676;2023-02-28T12:41:27;10.20;91.50
37086;DHT22;23001;45.952;12.676;2023-02-28T12:44:00;10.20;91.20
37086;DHT22;23001;45.952;12.676;2023-02-28T12:58:27;10.10;91.50
37086;DHT22;23001;45.952;12.676;2023-02-28T13:13:11;9.90;91.30
37086;DHT22;23001;45.952;12.676;2023-02-28T13:21:49;9.80;91.50
37086;DHT22;23001;45.952;12.676;2023-02-28T13:40:53;10.10;90.60
37086;DHT22;23001;45.952;12.676;2023-02-28T13:42:51;10.10;90.90
37086;DHT22;23001;45.952;12.676;2023-02-28T13:45:32;10.20;91.00
37086;DHT22;23001;45.952;12.676;2023-02-28T13:48:04;10.20;90.90
37086;DHT22;23001;45.952;12.676;2023-02-28T13:51:00;10.20;90.50
37086;DHT22;23001;45.952;12.676;2023-02-28T13:54:13;10.30;90.60
37086;DHT22;23001;45.952;12.676;2023-02-28T14:07:58;10.30;91.00
37086;DHT22;23001;45.952;12.676;2023-02-28T14:10:30;10.30;90.80
37086;DHT22;23001;45.952;12.676;2023-02-28T14:16:24;10.20;90.80
37086;DHT22;23001;45.952;12.676;2023-02-28T14:24:34;10.20;90.40
37086;DHT22;23001;45.952;12.676;2023-02-28T14:33:04;10.20;90.70
37086;DHT22;23001;45.952;12.676;2023-02-28T14:38:19;10.10;90.40
37086;DHT22;23001;45.952;12.676;2023-02-28T14:40:51;10.10;90.80
37086;DHT22;23001;45.952;12.676;2023-02-28T14:43:25;10.20;90.90
37086;DHT22;23001;45.952;12.676;2023-02-28T14:45:55;10.20;90.60
37086;DHT22;23001;45.952;12.676;2023-02-28T14:48:37;10.20;90.70
37086;DHT22;23001;45.952;12.676;2023-02-28T14:51:20;10.20;90.60
37086;DHT22;23001;45.952;12.676;2023-02-28T14:56:42;10.10;90.40
37086;DHT22;23001;45.952;12.676;2023-02-28T15:02:23;10.00;90.80
37086;DHT22;23001;45.952;12.676;2023-02-28T15:11:26;9.90;90.40
37086;DHT22;23001;45.952;12.676;2023-02-28T15:13:55;9.90;90.90
37086;DHT22;23001;45.952;12.676;2023-02-28T15:16:42;9.90;90.70
37086;DHT22;23001;45.952;12.676;2023-02-28T15:24:56;9.80;91.00
37086;DHT22;23001;45.952;12.676;2023-02-28T15:27:28;9.80;90.90
37086;DHT22;23001;45.952;12.676;2023-02-28T15:30:04;9.80;91.00
37086;DHT22;23001;45.952;12.676;2023-02-28T15:38:29;9.70;91.60
37086;DHT22;23001;45.952;12.676;2023-02-28T15:41:20;9.70;91.30
37086;DHT22;23001;45.952;12.676;2023-02-28T15:43:49;9.70;91.10
37086;DHT22;23001;45.952;12.676;2023-02-28T15:46:54;9.70;91.50
37086;DHT22;23001;45.952;12.676;2023-02-28T15:49:25;9.60;91.10
37086;DHT22;23001;45.952;12.676;2023-02-28T15:51:58;9.60;91.10
37086;DHT22;23001;45.952;12.676;2023-02-28T15:54:32;9.60;90.80
37086;DHT22;23001;45.952;12.676;2023-02-28T15:57:01;9.50;91.10
37086;DHT22;23001;45.952;12.676;2023-02-28T15:59:31;9.50;91.50
37086;DHT22;23001;45.952;12.676;2023-02-28T16:04:34;9.40;91.80
37086;DHT22;23001;45.952;12.676;2023-02-28T16:07:01;9.30;91.50
37086;DHT22;23001;45.952;12.676;2023-02-28T16:09:27;9.20;91.40
37086;DHT22;23001;45.952;12.676;2023-02-28T16:12:42;9.20;91.30
37086;DHT22;23001;45.952;12.676;2023-02-28T16:14:43;9.10;91.30
37086;DHT22;23001;45.952;12.676;2023-02-28T16:17:20;9.10;91.30
37086;DHT22;23001;45.952;12.676;2023-02-28T16:19:52;9.00;91.70
37086;DHT22;23001;45.952;12.676;2023-02-28T16:22:18;8.90;91.60
37086;DHT22;23001;45.952;12.676;2023-02-28T16:24:44;9.00;91.70
37086;DHT22;23001;45.952;12.676;2023-02-28T16:30:02;8.90;92.00
37086;DHT22;23001;45.952;12.676;2023-02-28T16:35:33;8.80;92.60
37086;DHT22;23001;45.952;12.676;2023-02-28T16:37:58;8.80;92.50
37086;DHT22;23001;45.952;12.676;2023-02-28T16:40:25;8.70;92.80
37086;DHT22;23001;45.952;12.676;2023-02-28T16:42:52;8.70;92.80
37086;DHT22;23001;45.952;12.676;2023-02-28T16:45:22;8.60;92.70
37086;DHT22;23001;45.952;12.676;2023-02-28T16:47:48;8.60;92.50
37086;DHT22;23001;45.952;12.676;2023-02-28T16:50:16;8.50;92.50
37086;DHT22;23001;45.952;12.676;2023-02-28T16:52:43;8.40;92.60
37086;DHT22;23001;45.952;12.676;2023-02-28T16:55:08;8.30;92.40
37086;DHT22;23001;45.952;12.676;2023-02-28T16:57:34;8.30;92.70
37086;DHT22;23001;45.952;12.676;2023-02-28T17:00:00;8.30;92.70
37086;DHT22;23001;45.952;12.676;2023-02-28T17:02:28;8.30;92.70
37086;DHT22;23001;45.952;12.676;2023-02-28T17:04:54;8.20;92.50
37086;DHT22;23001;45.952;12.676;2023-02-28T17:07:22;8.10;92.80
37086;DHT22;23001;45.952;12.676;2023-02-28T17:09:47;8.20;92.80
37086;DHT22;23001;45.952;12.676;2023-02-28T17:12:13;8.00;93.00
37086;DHT22;23001;45.952;12.676;2023-02-28T17:14:39;8.10;93.10
37086;DHT22;23001;45.952;12.676;2023-02-28T17:17:05;8.00;93.20
37086;DHT22;23001;45.952;12.676;2023-02-28T17:19:31;7.90;93.20
37086;DHT22;23001;45.952;12.676;2023-02-28T17:22:01;7.80;93.30
37086;DHT22;23001;45.952;12.676;2023-02-28T17:24:28;7.80;93.50
37086;DHT22;23001;45.952;12.676;2023-02-28T17:26:53;7.80;93.60
37086;DHT22;23001;45.952;12.676;2023-02-28T17:29:20;7.70;93.30
37086;DHT22;23001;45.952;12.676;2023-02-28T17:31:46;7.80;93.30
37086;DHT22;23001;45.952;12.676;2023-02-28T17:34:14;7.70;93.50
37086;DHT22;23001;45.952;12.676;2023-02-28T17:36:54;7.70;93.30
37086;DHT22;23001;45.952;12.676;2023-02-28T17:39:19;7.70;93.40
37086;DHT22;23001;45.952;12.676;2023-02-28T17:41:55;7.60;93.50
37086;DHT22;23001;45.952;12.676;2023-02-28T17:44:23;7.60;93.50
37086;DHT22;23001;45.952;12.676;2023-02-28T17:46:58;7.50;93.70
37086;DHT22;23001;45.952;12.676;2023-02-28T17:49:42;7.60;93.50
37086;DHT22;23001;45.952;12.676;2023-02-28T17:52:08;7.50;93.60
37086;DHT22;23001;45.952;12.676;2023-02-28T17:54:34;7.40;93.70
37086;DHT22;23001;45.952;12.676;2023-02-28T17:57:02;7.50;93.70
37086;DHT22;23001;45.952;12.676;2023-02-28T17:59:40;7.50;93.70
37086;DHT22;23001;45.952;12.676;2023-02-28T18:02:08;7.40;93.80
37086;DHT22;23001;45.952;12.676;2023-02-28T18:04:34;7.30;93.80
37086;DHT22;23001;45.952;12.676;2023-02-28T18:07:00;7.30;93.80
37086;DHT22;23001;45.952;12.676;2023-02-28T18:09:25;7.30;93.80
37086;DHT22;23001;45.952;12.676;2023-02-28T18:11:52;7.30;94.00
37086;DHT22;23001;45.952;12.676;2023-02-28T18:14:18;7.20;94.10
37086;DHT22;23001;45.952;12.676;2023-02-28T18:16:45;7.20;94.40
37086;DHT22;23001;45.952;12.676;2023-02-28T18:19:11;7.20;94.40
37086;DHT22;23001;45.952;12.676;2023-02-28T18:21:40;7.10;94.50
37086;DHT22;23001;45.952;12.676;2023-02-28T18:24:06;7.20;94.70
37086;DHT22;23001;45.952;12.676;2023-02-28T18:26:32;7.10;94.80
37086;DHT22;23001;45.952;12.676;2023-02-28T18:28:58;7.10;94.60
37086;DHT22;23001;45.952;12.676;2023-02-28T18:31:24;7.10;94.50
37086;DHT22;23001;45.952;12.676;2023-02-28T18:33:50;7.10;94.60
37086;DHT22;23001;45.952;12.676;2023-02-28T18:36:16;7.00;94.60
37086;DHT22;23001;45.952;12.676;2023-02-28T18:38:42;7.00;94.60
37086;DHT22;23001;45.952;12.676;2023-02-28T18:41:08;7.00;94.80
37086;DHT22;23001;45.952;12.676;2023-02-28T18:43:35;7.00;94.90
37086;DHT22;23001;45.952;12.676;2023-02-28T18:48:31;6.90;95.00
37086;DHT22;23001;45.952;12.676;2023-02-28T18:50:56;6.80;94.90
37086;DHT22;23001;45.952;12.676;2023-02-28T18:53:22;6.80;95.00
37086;DHT22;23001;45.952;12.676;2023-02-28T18:55:48;6.80;95.20
37086;DHT22;23001;45.952;12.676;2023-02-28T18:58:13;6.80;95.20
37086;DHT22;23001;45.952;12.676;2023-02-28T19:00:39;6.90;95.20
37086;DHT22;23001;45.952;12.676;2023-02-28T19:03:05;6.80;95.50
37086;DHT22;23001;45.952;12.676;2023-02-28T19:05:31;6.80;95.40
37086;DHT22;23001;45.952;12.676;2023-02-28T19:07:59;6.80;95.30
37086;DHT22;23001;45.952;12.676;2023-02-28T19:10:25;6.70;95.50
37086;DHT22;23001;45.952;12.676;2023-02-28T19:12:50;6.70;95.60
37086;DHT22;23001;45.952;12.676;2023-02-28T19:15:16;6.70;96.10
37086;DHT22;23001;45.952;12.676;2023-02-28T19:17:41;6.70;95.70
37086;DHT22;23001;45.952;12.676;2023-02-28T19:20:07;6.60;95.80
37086;DHT22;23001;45.952;12.676;2023-02-28T19:22:34;6.60;95.90
37086;DHT22;23001;45.952;12.676;2023-02-28T19:25:00;6.60;96.00
37086;DHT22;23001;45.952;12.676;2023-02-28T19:27:25;6.60;96.00
37086;DHT22;23001;45.952;12.676;2023-02-28T19:29:51;6.60;96.10
37086;DHT22;23001;45.952;12.676;2023-02-28T19:32:17;6.50;96.10
37086;DHT22;23001;45.952;12.676;2023-02-28T19:34:43;6.50;96.40
37086;DHT22;23001;45.952;12.676;2023-02-28T19:37:09;6.40;96.30
37086;DHT22;23001;45.952;12.676;2023-02-28T19:39:35;6.40;96.60
37086;DHT22;23001;45.952;12.676;2023-02-28T19:42:07;6.30;96.90
37086;DHT22;23001;45.952;12.676;2023-02-28T19:44:33;6.20;96.60
37086;DHT22;23001;45.952;12.676;2023-02-28T19:46:58;6.30;96.60
37086;DHT22;23001;45.952;12.676;2023-02-28T19:49:24;6.30;96.70
37086;DHT22;23001;45.952;12.676;2023-02-28T19:51:49;6.30;96.50
37086;DHT22;23001;45.952;12.676;2023-02-28T19:54:15;6.30;96.50
37086;DHT22;23001;45.952;12.676;2023-02-28T19:56:40;6.30;96.50
37086;DHT22;23001;45.952;12.676;2023-02-28T19:59:06;6.40;96.30
37086;DHT22;23001;45.952;12.676;2023-02-28T20:01:32;6.50;96.20
37086;DHT22;23001;45.952;12.676;2023-02-28T20:03:58;6.50;96.10
37086;DHT22;23001;45.952;12.676;2023-02-28T20:06:23;6.50;96.00
37086;DHT22;23001;45.952;12.676;2023-02-28T20:08:52;6.50;96.30
37086;DHT22;23001;45.952;12.676;2023-02-28T20:11:18;6.50;96.20
37086;DHT22;23001;45.952;12.676;2023-02-28T20:13:44;6.50;96.30
37086;DHT22;23001;45.952;12.676;2023-02-28T20:16:10;6.50;96.20
37086;DHT22;23001;45.952;12.676;2023-02-28T20:18:36;6.50;96.20
37086;DHT22;23001;45.952;12.676;2023-02-28T20:21:02;6.50;96.20
37086;DHT22;23001;45.952;12.676;2023-02-28T20:23:28;6.50;96.20
37086;DHT22;23001;45.952;12.676;2023-02-28T20:25:56;6.50;96.30
37086;DHT22;23001;45.952;12.676;2023-02-28T20:28:22;6.40;96.40
37086;DHT22;23001;45.952;12.676;2023-02-28T20:30:48;6.40;96.50
37086;DHT22;23001;45.952;12.676;2023-02-28T20:33:14;6.40;96.40
37086;DHT22;23001;45.952;12.676;2023-02-28T20:35:48;6.40;96.40
37086;DHT22;23001;45.952;12.676;2023-02-28T20:38:16;6.50;96.60
37086;DHT22;23001;45.952;12.676;2023-02-28T20:40:42;6.40;96.60
37086;DHT22;23001;45.952;12.676;2023-02-28T20:43:07;6.40;96.50
37086;DHT22;23001;45.952;12.676;2023-02-28T20:45:33;6.40;96.80
37086;DHT22;23001;45.952;12.676;2023-02-28T20:48:00;6.20;96.80
37086;DHT22;23001;45.952;12.676;2023-02-28T20:50:25;6.30;97.10
37086;DHT22;23001;45.952;12.676;2023-02-28T20:52:51;6.20;97.00
37086;DHT22;23001;45.952;12.676;2023-02-28T20:55:17;6.20;97.20
37086;DHT22;23001;45.952;12.676;2023-02-28T20:57:43;6.20;97.30
37086;DHT22;23001;45.952;12.676;2023-02-28T21:00:11;6.00;97.40
37086;DHT22;23001;45.952;12.676;2023-02-28T21:02:40;5.90;97.60
37086;DHT22;23001;45.952;12.676;2023-02-28T21:05:06;5.90;97.80
37086;DHT22;23001;45.952;12.676;2023-02-28T21:07:32;5.80;97.90
37086;DHT22;23001;45.952;12.676;2023-02-28T21:09:57;5.70;98.30
37086;DHT22;23001;45.952;12.676;2023-02-28T21:12:23;5.70;98.20
37086;DHT22;23001;45.952;12.676;2023-02-28T21:14:57;5.70;98.40
37086;DHT22;23001;45.952;12.676;2023-02-28T21:17:23;5.60;98.50
37086;DHT22;23001;45.952;12.676;2023-02-28T21:19:49;5.60;98.70
37086;DHT22;23001;45.952;12.676;2023-02-28T21:22:14;5.60;98.60
37086;DHT22;23001;45.952;12.676;2023-02-28T21:24:40;5.60;98.70
37086;DHT22;23001;45.952;12.676;2023-02-28T21:27:06;5.50;98.80
37086;DHT22;23001;45.952;12.676;2023-02-28T21:29:31;5.50;98.90
37086;DHT22;23001;45.952;12.676;2023-02-28T21:31:57;5.50;98.80
37086;DHT22;23001;45.952;12.676;2023-02-28T21:34:23;5.40;98.90
37086;DHT22;23001;45.952;12.676;2023-02-28T21:36:51;5.50;98.80
37086;DHT22;23001;45.952;12.676;2023-02-28T21:39:18;5.60;98.50
37086;DHT22;23001;45.952;12.676;2023-02-28T21:41:46;5.70;98.60
37086;DHT22;23001;45.952;12.676;2023-02-28T21:44:14;5.60;98.60
37086;DHT22;23001;45.952;12.676;2023-02-28T22:42:18;4.70;99.90
37086;DHT22;23001;45.952;12.676;2023-02-28T22:44:51;4.60;99.90
37086;DHT22;23001;45.952;12.676;2023-02-28T22:52:58;4.60;99.90
37086;DHT22;23001;45.952;12.676;2023-02-28T22:55:24;4.60;99.90
